createdAt,value
2022-08-11T00:00:17.446Z,61.10
2022-08-11T00:02:50.218Z,61.30
2022-08-11T00:05:25.029Z,61.10
2022-08-11T00:07:57.142Z,61.40
2022-08-11T00:10:29.174Z,60.90
2022-08-11T00:13:00.854Z,60.60
2022-08-11T00:15:40.129Z,60.60
2022-08-11T00:18:11.306Z,61.00
2022-08-11T00:20:47.341Z,60.90
2022-08-11T00:23:20.679Z,60.40
2022-08-11T00:25:53.930Z,61.30
2022-08-11T00:28:28.856Z,61.00
2022-08-11T00:31:01.039Z,61.60
2022-08-11T00:33:41.271Z,62.30
2022-08-11T00:36:25.466Z,62.40
2022-08-11T00:38:56.770Z,62.70
2022-08-11T00:41:35.644Z,62.60
2022-08-11T00:44:35.457Z,62.40
2022-08-11T00:47:27.277Z,62.30
2022-08-11T00:50:06.861Z,62.20
2022-08-11T00:52:57.672Z,62.30
2022-08-11T00:56:00.184Z,62.30
2022-08-11T00:59:06.053Z,62.30
2022-08-11T01:02:08.951Z,62.30
2022-08-11T01:05:17.832Z,62.40
2022-08-11T01:08:26.317Z,63.00
2022-08-11T01:11:25.034Z,61.80
2022-08-11T01:14:34.538Z,62.80
2022-08-11T01:17:38.368Z,63.30
2022-08-11T01:20:45.970Z,63.00
2022-08-11T01:23:48.773Z,63.30
2022-08-11T01:26:57.745Z,63.60
2022-08-11T01:29:57.820Z,63.50
2022-08-11T01:33:00.921Z,63.90
2022-08-11T01:36:09.592Z,63.60
2022-08-11T01:38:58.502Z,64.10
2022-08-11T01:41:58.779Z,64.10
2022-08-11T01:45:09.235Z,64.00
2022-08-11T01:47:55.200Z,64.20
2022-08-11T01:50:38.648Z,64.30
2022-08-11T01:53:18.936Z,64.40
2022-08-11T01:55:58.083Z,64.50
2022-08-11T01:58:44.263Z,64.50
2022-08-11T02:01:37.535Z,64.60
2022-08-11T02:04:18.254Z,64.40
2022-08-11T02:06:59.791Z,64.90
2022-08-11T02:09:51.788Z,64.70
2022-08-11T02:12:37.824Z,64.20
2022-08-11T02:15:17.537Z,64.90
2022-08-11T02:18:00.175Z,65.00
2022-08-11T02:20:50.485Z,64.80
2022-08-11T02:24:06.112Z,64.80
2022-08-11T02:26:44.134Z,65.30
2022-08-11T02:29:21.905Z,65.50
2022-08-11T02:32:29.719Z,65.50
2022-08-11T02:35:19.927Z,65.70
2022-08-11T02:37:58.086Z,66.40
2022-08-11T02:40:37.298Z,66.50
2022-08-11T02:43:25.079Z,66.10
2022-08-11T02:46:07.421Z,65.90
2022-08-11T02:49:14.490Z,66.90
2022-08-11T02:51:58.644Z,67.40
2022-08-11T02:54:35.420Z,67.20
2022-08-11T02:57:11.701Z,66.50
2022-08-11T02:59:54.085Z,67.00
2022-08-11T03:02:46.341Z,66.60
2022-08-11T03:05:26.997Z,66.90
2022-08-11T03:08:18.922Z,67.20
2022-08-11T03:11:15.456Z,67.20
2022-08-11T03:13:59.102Z,67.00
2022-08-11T03:16:49.105Z,67.40
2022-08-11T03:19:24.906Z,67.30
2022-08-11T03:22:06.596Z,67.60
2022-08-11T03:24:52.616Z,68.60
2022-08-11T03:27:44.780Z,69.10
2022-08-11T03:30:19.305Z,68.50
2022-08-11T03:33:23.553Z,67.60
2022-08-11T03:36:08.562Z,68.00
2022-08-11T03:38:51.885Z,68.20
2022-08-11T03:42:02.059Z,68.60
2022-08-11T03:45:02.902Z,68.20
2022-08-11T03:48:14.659Z,68.30
2022-08-11T03:51:05.801Z,68.30
2022-08-11T03:54:06.745Z,68.60
2022-08-11T03:57:36.751Z,68.70
2022-08-11T04:00:24.400Z,69.00
2022-08-11T04:03:35.707Z,68.60
2022-08-11T04:06:49.411Z,69.50
2022-08-11T04:09:59.621Z,69.30
2022-08-11T04:13:12.397Z,69.30
2022-08-11T04:16:12.219Z,69.20
2022-08-11T04:19:21.600Z,69.70
2022-08-11T04:22:26.665Z,70.00
2022-08-11T04:25:22.591Z,69.90
2022-08-11T04:28:29.323Z,69.50
2022-08-11T04:31:10.300Z,69.80
2022-08-11T04:34:02.731Z,69.50
2022-08-11T04:37:12.936Z,70.30
2022-08-11T04:39:54.834Z,70.40
2022-08-11T04:43:11.925Z,70.60
2022-08-11T04:46:06.785Z,71.10
2022-08-11T04:49:13.051Z,71.20
2022-08-11T04:52:25.567Z,71.40
2022-08-11T04:55:50.784Z,71.60
2022-08-11T04:58:41.249Z,71.70
2022-08-11T05:01:40.783Z,71.40
2022-08-11T05:04:43.387Z,71.90
2022-08-11T05:07:39.097Z,72.70
2022-08-11T05:10:40.099Z,73.20
2022-08-11T05:13:37.743Z,73.00
2022-08-11T05:16:25.904Z,73.80
2022-08-11T05:19:12.253Z,73.60
2022-08-11T05:22:07.054Z,73.10
2022-08-11T05:24:56.611Z,72.60
2022-08-11T05:27:48.686Z,72.30
2022-08-11T05:30:34.546Z,72.70
2022-08-11T05:33:21.967Z,72.50
2022-08-11T05:36:01.317Z,72.50
2022-08-11T05:38:49.315Z,72.30
2022-08-11T05:41:37.128Z,72.50
2022-08-11T05:44:22.746Z,72.30
2022-08-11T05:47:06.020Z,72.40
2022-08-11T05:49:50.023Z,72.30
2022-08-11T05:52:38.345Z,71.80
2022-08-11T05:55:26.231Z,72.20
2022-08-11T05:57:59.793Z,72.10
2022-08-11T06:00:33.986Z,72.00
2022-08-11T06:03:07.573Z,71.80
2022-08-11T06:05:44.155Z,71.80
2022-08-11T06:08:16.782Z,71.70
2022-08-11T06:10:48.459Z,71.80
2022-08-11T06:13:20.419Z,71.80
2022-08-11T06:15:56.085Z,71.40
2022-08-11T06:18:26.547Z,71.70
2022-08-11T06:20:57.623Z,71.40
2022-08-11T06:23:36.081Z,71.50
2022-08-11T06:26:11.920Z,71.40
2022-08-11T06:28:45.118Z,71.40
2022-08-11T06:31:24.167Z,70.60
2022-08-11T06:34:03.203Z,70.50
2022-08-11T06:36:37.661Z,70.00
2022-08-11T06:39:18.755Z,69.80
2022-08-11T06:41:52.505Z,68.80
2022-08-11T06:44:32.466Z,68.60
2022-08-11T06:47:13.081Z,66.60
2022-08-11T06:50:00.047Z,67.20
2022-08-11T06:52:36.674Z,66.50
2022-08-11T06:55:57.843Z,67.10
2022-08-11T06:58:14.279Z,66.90
2022-08-11T07:00:45.189Z,66.00
2022-08-11T07:03:22.014Z,65.80
2022-08-11T07:05:53.617Z,64.90
2022-08-11T07:09:16.024Z,64.10
2022-08-11T07:12:15.430Z,64.50
2022-08-11T07:15:05.617Z,63.90
2022-08-11T07:17:41.227Z,64.80
2022-08-11T07:20:28.837Z,63.70
2022-08-11T07:23:14.511Z,63.50
2022-08-11T07:26:00.203Z,63.00
2022-08-11T07:28:45.066Z,62.10
2022-08-11T07:31:21.603Z,60.90
2022-08-11T07:34:08.455Z,62.00
2022-08-11T07:36:51.543Z,61.90
2022-08-11T07:39:24.651Z,60.90
2022-08-11T07:41:57.728Z,60.30
2022-08-11T07:44:34.697Z,58.90
2022-08-11T07:47:18.997Z,57.30
2022-08-11T07:50:04.138Z,57.60
2022-08-11T07:52:40.820Z,57.00
2022-08-11T07:55:17.068Z,56.60
2022-08-11T07:58:15.994Z,56.50
2022-08-11T08:01:10.085Z,56.40
2022-08-11T08:03:54.931Z,55.80
2022-08-11T08:06:38.597Z,55.10
2022-08-11T08:09:25.509Z,55.80
2022-08-11T08:12:08.463Z,55.90
2022-08-11T08:14:51.812Z,55.30
2022-08-11T08:17:36.213Z,56.40
2022-08-11T08:20:08.011Z,55.70
2022-08-11T08:22:41.885Z,55.80
2022-08-11T08:25:18.239Z,54.80
2022-08-11T08:27:48.993Z,53.40
2022-08-11T08:30:31.817Z,52.90
2022-08-11T08:33:02.882Z,49.70
2022-08-11T08:35:34.816Z,50.40
2022-08-11T08:38:05.933Z,48.90
2022-08-11T08:40:39.433Z,45.20
2022-08-11T08:43:15.384Z,43.10
2022-08-11T08:45:46.723Z,41.40
2022-08-11T08:48:20.864Z,40.50
2022-08-11T08:51:08.854Z,38.60
2022-08-11T08:53:52.611Z,36.00
2022-08-11T08:56:34.080Z,34.60
2022-08-11T08:59:09.604Z,35.10
2022-08-11T09:01:46.469Z,34.90
2022-08-11T09:04:20.915Z,32.80
2022-08-11T09:06:52.990Z,33.30
2022-08-11T09:09:24.903Z,34.10
2022-08-11T09:11:58.303Z,35.30
2022-08-11T09:14:51.567Z,35.40
2022-08-11T09:17:22.871Z,35.70
2022-08-11T09:19:58.856Z,36.30
2022-08-11T09:22:41.869Z,35.60
2022-08-11T09:25:25.137Z,35.20
2022-08-11T09:27:59.550Z,35.30
2022-08-11T09:30:30.659Z,34.70
2022-08-11T09:33:05.097Z,33.80
2022-08-11T09:35:38.881Z,34.60
2022-08-11T09:38:31.248Z,34.20
2022-08-11T09:41:02.986Z,33.30
2022-08-11T09:43:51.507Z,32.50
2022-08-11T09:46:27.976Z,33.20
2022-08-11T09:49:01.260Z,34.10
2022-08-11T09:51:35.164Z,33.10
2022-08-11T09:54:08.101Z,32.30
2022-08-11T09:56:51.494Z,32.30
2022-08-11T09:59:25.587Z,32.60
2022-08-11T10:02:01.971Z,31.80
2022-08-11T10:04:43.244Z,31.90
2022-08-11T10:07:15.915Z,30.80
2022-08-11T10:09:56.235Z,30.90
2022-08-11T10:12:29.782Z,30.80
2022-08-11T10:15:20.223Z,30.70
2022-08-11T10:18:08.328Z,30.70
2022-08-11T10:20:40.790Z,30.40
2022-08-11T10:23:25.620Z,29.80
2022-08-11T10:26:08.625Z,30.50
2022-08-11T10:29:02.166Z,30.60
2022-08-11T10:31:57.947Z,30.20
2022-08-11T10:34:30.449Z,30.60
2022-08-11T10:37:03.349Z,31.00
2022-08-11T10:39:33.727Z,30.10
2022-08-11T10:42:29.988Z,29.80
2022-08-11T10:45:29.926Z,29.10
2022-08-11T10:48:00.496Z,29.50
2022-08-11T10:50:43.256Z,29.50
2022-08-11T10:53:29.696Z,29.70
2022-08-11T10:56:13.839Z,29.30
2022-08-11T10:58:54.458Z,29.10
2022-08-11T11:01:27.361Z,28.60
2022-08-11T11:04:04.243Z,28.90
2022-08-11T11:06:44.915Z,28.00
2022-08-11T11:09:20.699Z,28.40
2022-08-11T11:12:18.362Z,29.00
2022-08-11T11:15:02.469Z,29.40
2022-08-11T11:17:54.216Z,29.50
2022-08-11T11:20:34.759Z,28.80
2022-08-11T11:23:10.564Z,29.40
2022-08-11T11:26:10.486Z,29.00
2022-08-11T11:29:12.509Z,29.00
2022-08-11T11:31:56.895Z,28.30
2022-08-11T11:34:52.936Z,28.30
2022-08-11T11:37:26.900Z,29.10
2022-08-11T11:39:58.167Z,29.40
2022-08-11T11:42:29.168Z,29.40
2022-08-11T11:45:01.590Z,29.50
2022-08-11T11:47:33.066Z,29.50
2022-08-11T11:50:03.768Z,29.40
2022-08-11T11:52:37.751Z,30.00
2022-08-11T11:55:09.972Z,29.60
2022-08-11T11:57:58.998Z,29.90
2022-08-11T12:00:45.773Z,29.70
2022-08-11T12:03:16.567Z,30.20
2022-08-11T12:05:47.767Z,30.40
2022-08-11T12:08:23.455Z,30.90
2022-08-11T12:11:18.973Z,30.80
2022-08-11T12:13:50.651Z,31.00
2022-08-11T12:16:35.015Z,29.90
2022-08-11T12:19:10.582Z,29.80
2022-08-11T12:22:01.626Z,30.10
2022-08-11T12:24:50.177Z,30.10
2022-08-11T12:27:25.085Z,30.00
2022-08-11T12:29:59.268Z,29.80
2022-08-11T12:32:32.430Z,30.00
2022-08-11T12:35:02.964Z,30.20
2022-08-11T12:37:38.466Z,30.50
2022-08-11T12:40:43.607Z,30.70
2022-08-11T12:43:38.247Z,30.90
2022-08-11T12:46:12.694Z,30.00
2022-08-11T12:49:09.591Z,29.60
2022-08-11T12:52:11.693Z,29.20
2022-08-11T12:55:02.170Z,29.20
2022-08-11T12:57:51.411Z,29.60
2022-08-11T13:00:35.050Z,29.80
2022-08-11T13:03:18.845Z,30.10
2022-08-11T13:05:51.467Z,28.90
2022-08-11T13:08:22.973Z,28.80
2022-08-11T13:11:06.939Z,29.10
2022-08-11T13:13:54.066Z,29.40
2022-08-11T13:16:29.017Z,29.60
2022-08-11T13:19:01.576Z,29.40
2022-08-11T13:21:32.969Z,29.60
2022-08-11T13:24:04.754Z,30.10
2022-08-11T13:26:48.872Z,30.20
2022-08-11T13:29:31.035Z,29.40
2022-08-11T13:32:02.644Z,29.10
2022-08-11T13:34:35.424Z,29.20
2022-08-11T13:37:07.986Z,29.40
2022-08-11T13:39:40.080Z,29.80
2022-08-11T13:42:10.770Z,29.80
2022-08-11T13:44:44.352Z,30.10
2022-08-11T13:47:18.432Z,29.70
2022-08-11T13:49:49.258Z,29.90
2022-08-11T13:52:20.632Z,29.50
2022-08-11T13:54:54.390Z,29.60
2022-08-11T13:58:09.043Z,29.50
2022-08-11T14:00:25.000Z,29.40
2022-08-11T14:02:59.795Z,29.10
2022-08-11T14:05:34.122Z,29.50
2022-08-11T14:08:06.740Z,29.50
2022-08-11T14:10:40.957Z,29.50
2022-08-11T14:13:26.590Z,30.10
2022-08-11T14:16:05.037Z,29.90
2022-08-11T14:18:36.728Z,30.10
2022-08-11T14:21:21.074Z,30.20
2022-08-11T14:23:55.423Z,29.80
2022-08-11T14:26:27.183Z,29.50
2022-08-11T14:29:00.497Z,29.70
2022-08-11T14:31:34.985Z,30.00
2022-08-11T14:34:08.575Z,30.20
2022-08-11T14:36:41.998Z,30.40
2022-08-11T14:39:14.580Z,30.70
2022-08-11T14:42:11.230Z,30.00
2022-08-11T14:44:58.869Z,30.00
2022-08-11T14:47:33.782Z,29.80
2022-08-11T14:50:11.746Z,29.90
2022-08-11T14:52:47.819Z,30.00
2022-08-11T14:55:31.315Z,29.60
2022-08-11T14:58:03.574Z,30.10
2022-08-11T15:00:35.439Z,30.20
2022-08-11T15:03:11.858Z,29.90
2022-08-11T15:05:57.439Z,29.80
2022-08-11T15:08:43.841Z,29.90
2022-08-11T15:11:28.267Z,29.90
2022-08-11T15:13:59.993Z,29.70
2022-08-11T15:16:43.901Z,29.40
2022-08-11T15:19:17.537Z,29.10
2022-08-11T15:22:00.087Z,29.20
2022-08-11T15:24:31.217Z,28.50
2022-08-11T15:27:24.854Z,28.70
2022-08-11T15:30:08.501Z,29.00
2022-08-11T15:32:54.497Z,29.30
2022-08-11T15:35:40.596Z,29.80
2022-08-11T15:38:15.056Z,30.00
2022-08-11T15:40:58.751Z,30.30
2022-08-11T15:43:46.518Z,30.40
2022-08-11T15:46:22.365Z,30.80
2022-08-11T15:48:59.350Z,30.50
2022-08-11T15:51:36.730Z,30.20
2022-08-11T15:54:11.518Z,29.80
2022-08-11T15:56:47.507Z,30.40
2022-08-11T15:59:42.037Z,30.80
2022-08-11T16:02:28.688Z,31.20
2022-08-11T16:05:02.191Z,30.70
2022-08-11T16:07:40.557Z,30.70
2022-08-11T16:10:18.902Z,30.90
2022-08-11T16:13:23.290Z,30.80
2022-08-11T16:16:10.846Z,30.90
2022-08-11T16:18:51.618Z,30.70
2022-08-11T16:21:34.955Z,30.40
2022-08-11T16:27:04.683Z,30.50
2022-08-11T16:27:13.577Z,30.00
2022-08-11T16:29:48.082Z,30.70
2022-08-11T16:32:23.538Z,30.80
2022-08-11T16:35:10.829Z,31.00
2022-08-11T16:37:54.221Z,32.00
2022-08-11T16:40:29.712Z,32.40
2022-08-11T16:43:13.829Z,32.80
2022-08-11T16:45:58.469Z,32.30
2022-08-11T16:48:35.670Z,32.80
2022-08-11T16:51:08.754Z,32.20
2022-08-11T16:53:46.108Z,32.10
2022-08-11T16:56:38.181Z,32.20
2022-08-11T16:59:15.956Z,32.50
2022-08-11T17:01:50.057Z,32.50
2022-08-11T17:04:43.276Z,32.60
2022-08-11T17:07:42.491Z,32.50
2022-08-11T17:10:53.257Z,32.70
2022-08-11T17:13:31.017Z,32.60
2022-08-11T17:16:12.736Z,33.00
2022-08-11T17:18:56.855Z,33.90
2022-08-11T17:21:29.978Z,33.30
2022-08-11T17:24:05.069Z,33.30
2022-08-11T17:26:58.524Z,33.40
2022-08-11T17:29:33.751Z,33.90
2022-08-11T17:32:55.747Z,33.70
2022-08-11T17:35:36.023Z,33.70
2022-08-11T17:38:09.116Z,33.10
2022-08-11T17:41:02.370Z,33.50
2022-08-11T17:43:45.746Z,33.70
2022-08-11T17:46:32.775Z,33.60
2022-08-11T17:49:03.667Z,33.50
2022-08-11T17:51:47.037Z,33.80
2022-08-11T17:54:30.641Z,33.00
2022-08-11T17:57:20.205Z,33.60
2022-08-11T17:59:57.128Z,33.70
2022-08-11T18:02:46.125Z,34.10
2022-08-11T18:05:19.928Z,34.00
2022-08-11T18:08:05.820Z,34.30
2022-08-11T18:10:49.852Z,33.80
2022-08-11T18:13:34.334Z,33.90
2022-08-11T18:16:16.974Z,34.20
2022-08-11T18:19:02.200Z,34.10
2022-08-11T18:21:46.803Z,34.40
2022-08-11T18:24:54.184Z,34.30
2022-08-11T18:27:39.937Z,34.90
2022-08-11T18:30:24.318Z,34.60
2022-08-11T18:33:44.741Z,34.80
2022-08-11T18:36:17.067Z,34.80
2022-08-11T18:39:01.614Z,34.90
2022-08-11T18:41:47.139Z,35.00
2022-08-11T18:44:33.106Z,34.90
2022-08-11T18:47:21.116Z,35.00
2022-08-11T18:50:11.045Z,35.10
2022-08-11T18:53:02.477Z,35.20
2022-08-11T18:55:46.209Z,35.30
2022-08-11T18:58:34.786Z,35.30
2022-08-11T19:01:19.811Z,35.60
2022-08-11T19:04:10.669Z,36.10
2022-08-11T19:06:55.253Z,37.20
2022-08-11T19:09:42.075Z,37.30
2022-08-11T19:12:25.744Z,37.10
2022-08-11T19:15:09.882Z,37.60
2022-08-11T19:17:55.741Z,38.40
2022-08-11T19:20:41.725Z,37.70
2022-08-11T19:23:26.989Z,37.90
2022-08-11T19:26:13.348Z,38.90
2022-08-11T19:28:59.474Z,39.00
2022-08-11T19:31:44.998Z,39.80
2022-08-11T19:34:30.615Z,38.90
2022-08-11T19:37:13.466Z,38.30
2022-08-11T19:39:57.551Z,38.40
2022-08-11T19:42:43.920Z,38.60
2022-08-11T19:45:27.472Z,38.60
2022-08-11T19:51:14.309Z,39.80
2022-08-11T19:53:58.621Z,39.70
2022-08-11T19:56:41.697Z,40.00
2022-08-11T19:59:28.033Z,40.60
2022-08-11T20:02:14.426Z,39.60
2022-08-11T20:04:57.529Z,39.60
2022-08-11T20:07:42.989Z,39.40
2022-08-11T20:10:28.627Z,39.20
2022-08-11T20:13:12.714Z,39.20
2022-08-11T20:16:08.359Z,39.40
2022-08-11T20:18:52.408Z,39.40
2022-08-11T20:21:35.736Z,39.50
2022-08-11T20:24:19.541Z,39.80
2022-08-11T20:27:03.069Z,39.70
2022-08-11T20:29:47.908Z,39.90
2022-08-11T20:32:33.462Z,40.00
2022-08-11T20:35:16.988Z,40.20
2022-08-11T20:38:00.757Z,40.40
2022-08-11T20:40:44.704Z,40.70
2022-08-11T20:44:05.556Z,40.80
2022-08-11T20:46:35.380Z,40.90
2022-08-11T20:49:21.521Z,41.60
2022-08-11T20:52:06.246Z,42.10
2022-08-11T20:54:50.440Z,42.30
2022-08-11T20:57:58.584Z,42.10
2022-08-11T21:00:38.890Z,42.40
2022-08-11T21:03:35.461Z,42.60
2022-08-11T21:06:31.267Z,42.40
2022-08-11T21:09:19.613Z,42.80
2022-08-11T21:12:04.399Z,42.80
2022-08-11T21:14:50.212Z,43.00
2022-08-11T21:17:36.217Z,43.00
2022-08-11T21:20:39.400Z,43.50
2022-08-11T21:23:28.610Z,43.50
2022-08-11T21:26:16.983Z,43.70
2022-08-11T21:29:00.788Z,44.10
2022-08-11T21:31:46.093Z,44.20
2022-08-11T21:34:32.110Z,44.10
2022-08-11T21:37:17.048Z,44.40
2022-08-11T21:40:04.574Z,44.60
2022-08-11T21:42:49.399Z,44.70
2022-08-11T21:45:33.507Z,44.80
2022-08-11T21:48:17.261Z,45.00
2022-08-11T21:50:59.940Z,45.00
2022-08-11T21:53:43.102Z,45.20
2022-08-11T21:56:29.306Z,45.20
2022-08-11T21:59:13.625Z,45.50
2022-08-11T22:01:56.686Z,46.40
2022-08-11T22:04:40.924Z,46.00
2022-08-11T22:07:24.672Z,46.30
2022-08-11T22:10:35.967Z,46.20
2022-08-11T22:13:15.206Z,46.30
2022-08-11T22:15:58.015Z,46.20
2022-08-11T22:18:41.413Z,46.40
2022-08-11T22:22:02.522Z,46.60
2022-08-11T22:24:30.155Z,47.30
2022-08-11T22:27:12.898Z,47.10
2022-08-11T22:29:58.093Z,47.30
2022-08-11T22:32:41.572Z,47.60
2022-08-11T22:35:28.650Z,47.60
2022-08-11T22:38:12.733Z,47.40
2022-08-11T22:40:55.542Z,47.50
2022-08-11T22:43:38.096Z,48.10
2022-08-11T22:46:24.121Z,48.10
2022-08-11T22:49:08.361Z,48.30
2022-08-11T22:51:52.512Z,48.30
2022-08-11T22:54:35.987Z,47.80
2022-08-11T22:57:18.912Z,48.30
2022-08-11T23:00:01.570Z,48.60
2022-08-11T23:02:47.390Z,47.60
2022-08-11T23:05:31.516Z,48.30
2022-08-11T23:08:14.758Z,48.60
2022-08-11T23:10:58.118Z,50.20
2022-08-11T23:13:42.140Z,49.60
2022-08-11T23:16:25.048Z,49.40
2022-08-11T23:19:11.364Z,50.70
2022-08-11T23:21:54.938Z,50.00
2022-08-11T23:24:37.944Z,50.10
2022-08-11T23:27:23.940Z,50.40
2022-08-11T23:30:10.168Z,50.50
2022-08-11T23:32:54.486Z,50.90
2022-08-11T23:35:52.702Z,51.50
2022-08-11T23:38:37.555Z,51.60
2022-08-11T23:41:20.396Z,51.70
2022-08-11T23:44:04.221Z,52.10
2022-08-11T23:46:47.595Z,52.20
2022-08-11T23:49:29.990Z,52.10
2022-08-11T23:52:15.857Z,52.10
2022-08-11T23:54:59.794Z,51.50
2022-08-11T23:57:48.881Z,51.70
